• Join FlightAware (Why Join?)
  • Login
  • US Flag 
06:27AM EDT


 

Airport Tracker/Info


-or-


 

Live Flight TrackerFlight Track Log ✈ EJA947 ✈ 16-Apr-2013 ✈ KPHL - KMDW

Flight Track Log - Related Links

Times and Time Zones

All times are in EDT time to prevent confusion due to time zone crossing. See the EJA947 flight status page for this flight to view local times or setup timezone preferences in your user account.

Time Position Orientation Groundspeed Altitude Reporting Facility
EDT Latitude Longitude Course Direction KTS MPH feet Rate Location/Type
05:31PM 40.9707 -81.2263 285° West  Level Estimated
05:32PM 40.9906 -81.3548 282° West  Level Estimated
05:33PM 41.0103 -81.4834 282° West  Level Estimated
05:34PM 41.0298 -81.6121 281° West  Level Estimated
05:35PM 41.0492 -81.7409 281° West  Level Estimated
05:36PM 41.0685 -81.8697 281° West  Level Estimated
05:37PM 41.0876 -81.9981 281° West  Level Estimated
05:38PM 41.1065 -82.1266 281° West  Level Estimated
05:39PM 41.1252 -82.2551 281° West  Level Estimated
05:40PM 41.1439 -82.3838 281° West  Level Estimated
05:41PM 41.1623 -82.5125 281° West  Level Estimated
05:42PM 41.1807 -82.6412 281° West  Level Estimated
05:43PM 41.1989 -82.7701 281° West  Level Estimated
05:44PM 41.2169 -82.8990 281° West  Level Estimated
05:45PM 41.2348 -83.0280 281° West  Level Estimated
05:46PM 41.2526 -83.1570 280° West  Level Estimated
05:47PM 41.2702 -83.2861 280° West  Level Estimated
05:48PM 41.2877 -83.4153 280° West  Level Estimated
05:49PM 41.3050 -83.5446 280° West  Level Estimated
05:50PM 41.3222 -83.6739 280° West  Level Estimated
05:51PM 41.3392 -83.8033 280° West  Level Estimated
05:52PM 41.3561 -83.9328 280° West  Level Estimated
05:53PM 41.3729 -84.0623 280° West  Level Estimated
05:54PM 41.3895 -84.1919 280° West  Level Estimated
05:55PM 41.4059 -84.3216 280° West  Level Estimated
05:56PM 41.4223 -84.4513 280° West  Level Estimated
05:57PM 41.4384 -84.5811 279° West  Level Estimated
05:58PM 41.4544 -84.7109 279° West  Level Estimated
05:59PM 41.4703 -84.8409 279° West  Level Estimated
06:00PM 41.4861 -84.9708 279° West  Level Estimated
06:01PM 41.5016 -85.1009 279° West  Level Estimated
06:02PM 41.5171 -85.2310 279° West  Level Estimated
06:03PM 41.5324 -85.3612 279° West  Level Estimated
06:04PM 41.5475 -85.4914 279° West  Level Estimated
06:05PM 41.5625 -85.6217 279° West  Level Estimated
06:06PM 41.5774 -85.7521 279° West  Level Estimated
06:07PM 41.5921 -85.8825 279° West  Level Estimated
06:08PM 41.6066 -86.0129 279° West  Level Estimated
06:09PM 41.6210 -86.1435 278° West  Level Estimated
06:10PM 41.6353 -86.2741 278° West  Level Estimated
06:11PM 41.6494 -86.4047 278° West  Level Estimated
06:12PM 41.6633 -86.5354 278° West  Level Estimated
06:13PM 41.6772 -86.6662 278° West  Level Estimated
06:14PM 41.6908 -86.7970 278° West  Level Estimated
06:15PM 41.7043 -86.9279 278° West  Level Estimated
06:16PM 41.7177 -87.0588 278° West  Level Estimated
06:17PM 41.7309 -87.1898 278° West  Level Estimated
06:18PM 41.7440 -87.3208 278° West  Level Estimated
06:19PM 41.7569 -87.4519 278° West  Level Estimated
06:20PM 41.7697 -87.5831 277° West  Level Estimated
06:21PM 41.7823 -87.7142 277° West  Level Estimated
06:22PM 41.7860 -87.7524 277° West  Level Estimated
06:23PM 41.7860 -87.7524 48° Northeast  Level Estimated
06:24PM 41.7860 -87.7524 48° Northeast  Level Estimated
06:25PM 41.7860 -87.7524 48° Northeast  Level Estimated
06:26PM 41.7860 -87.7524 48° Northeast  Level Estimated
06:27PM 41.7860 -87.7524 48° Northeast  Level Estimated
06:28PM 41.7860 -87.7524 48° Northeast  Level Estimated
06:29PM 41.7860 -87.7524 48° Northeast  Level Estimated
06:30PM 41.7860 -87.7524 48° Northeast  Level Estimated
06:31PM 41.7860 -87.7524 48° Northeast  Level Estimated
06:32PM 41.7860 -87.7524 48° Northeast  Level Estimated
06:33PM 41.7860 -87.7524 48° Northeast  Level Estimated
06:34PM 41.7860 -87.7524 48° Northeast  Level Estimated
06:35PM 41.7860 -87.7524 48° Northeast  Level Estimated
06:36PM 41.7860 -87.7524 48° Northeast  Level Estimated
06:37PM 41.7860 -87.7524 48° Northeast  Level Estimated
06:38PM 41.7860 -87.7524 48° Northeast  Level Estimated
06:39PM 41.7860 -87.7524 48° Northeast  Level Estimated
06:40PM 41.7860 -87.7524 48° Northeast  Level Estimated
06:41PM 41.7860 -87.7524 48° Northeast  Level Estimated
06:42PM 41.7860 -87.7524 48° Northeast  Level Estimated
06:43PM 41.7860 -87.7524 48° Northeast  Level Estimated
06:44PM 41.7860 -87.7524 48° Northeast  Level Estimated
06:45PM 41.7860 -87.7524 48° Northeast  Level Estimated
06:46PM 41.7860 -87.7524 48° Northeast  Level Estimated
06:47PM 41.7860 -87.7524 48° Northeast  Level Estimated
06:48PM 41.7860 -87.7524 48° Northeast  Level Estimated
06:49PM 41.7860 -87.7524 48° Northeast  Level Estimated
06:50PM 41.7860 -87.7524 48° Northeast  Level Estimated
06:51PM 41.7860 -87.7524 48° Northeast  Level Estimated
06:52PM 41.7860 -87.7524 48° Northeast  Level Estimated
06:53PM 41.7860 -87.7524 48° Northeast  Level Estimated
06:54PM 41.7860 -87.7524 48° Northeast  Level Estimated
06:55PM 41.7860 -87.7524 48° Northeast  Level Estimated
06:56PM 41.7860 -87.7524 48° Northeast  Level Estimated
06:57PM 41.7860 -87.7524 48° Northeast  Level Estimated
06:58PM 41.7860 -87.7524 48° Northeast  Level Estimated
06:59PM 41.7860 -87.7524 48° Northeast  Level Estimated
07:00PM 41.7860 -87.7524 48° Northeast  Level Estimated
07:01PM 41.7860 -87.7524 48° Northeast  Level Estimated
07:02PM 41.7860 -87.7524 48° Northeast  Level Estimated
07:03PM 41.7860 -87.7524 48° Northeast  Level Estimated
07:04PM 41.7860 -87.7524 48° Northeast  Level Estimated
07:05PM 41.7860 -87.7524 48° Northeast  Level Estimated
07:06PM 41.7860 -87.7524 48° Northeast  Level Estimated
07:07PM 41.7860 -87.7524 48° Northeast  Level Estimated
07:08PM 41.7860 -87.7524 48° Northeast  Level Estimated
07:09PM 41.7860 -87.7524 48° Northeast  Level Estimated
07:10PM 41.7860 -87.7524 48° Northeast  Level Estimated
07:11PM 41.7860 -87.7524 48° Northeast  Level Estimated
07:12PM 41.7860 -87.7524 48° Northeast  Level Estimated
07:13PM 41.7860 -87.7524 48° Northeast  Level Estimated
07:14PM 41.7860 -87.7524 48° Northeast  Level Estimated
07:15PM 41.7860 -87.7524 48° Northeast  Level Estimated
07:16PM 41.7860 -87.7524 48° Northeast  Level Estimated
07:17PM 41.7860 -87.7524 48° Northeast  Level Estimated
07:18PM 41.7860 -87.7524 48° Northeast  Level Estimated
07:19PM 41.7860 -87.7524 48° Northeast  Level Estimated
07:20PM 41.7860 -87.7524 48° Northeast  Level Estimated
07:21PM 41.7860 -87.7524 48° Northeast  Level Estimated
07:22PM 41.7860 -87.7524 48° Northeast  Level Estimated
07:23PM 41.7860 -87.7524 48° Northeast  Level Estimated
07:24PM 41.7860 -87.7524 48° Northeast  Level Estimated
07:25PM 41.7860 -87.7524 48° Northeast  Level Estimated
07:26PM 41.7860 -87.7524 48° Northeast  Level Estimated
07:27PM 41.7860 -87.7524 48° Northeast  Level Estimated
07:28PM 41.7860 -87.7524 48° Northeast  Level Estimated
07:29PM 41.7860 -87.7524 48° Northeast  Level Estimated
07:30PM 41.7860 -87.7524 48° Northeast  Level Estimated
07:31PM 41.7860 -87.7524 48° Northeast  Level Estimated